Rechercher aéroport 
image banner adimage banner adimage banner ad
image banner ad

60L - Engine Co Nr 108

Situé à Los Angeles, United States

ICAO - 60L, IATA -

Données fournies par Airmate  

Information générale

Coordonnées: N34°7'36" W118°24'23"
Élévation : 1127 feet MSL.
Variation magnétique : 14° East
Voir autres Aéroports à California

Données opérationnelles

Special qualification required
Heure actuelle UTC:
Heure actuelle locale:
Météo à : KBUR - Bob Hope ( 9 km )
METAR: KBUR 020453Z 15004KT 10SM CLR 25/12 A3002 RMK AO2 SLP153 T02500117 $
TAF: KBUR 012348Z 0200/0224 18009KT P6SM SKC FM020100 12006KT P6SM SKC FM020800 VRB03KT P6SM SKC FM022000 17010KT P6SM SKC
Voir NOTAMs / SUP AIP / TFR affectant cet aéroport [VIEW]
Fréquences de communication: [VIEW]

Pistes:

Coordonnées de l'aéroport

Adresse: Los Angeles United States

Vue satellite de 60L